createdAt,value
2019-05-29T00:01:10.394Z,12.80
2019-05-29T00:03:36.900Z,12.70
2019-05-29T00:06:06.199Z,12.60
2019-05-29T00:08:35.109Z,12.60
2019-05-29T00:11:03.784Z,12.50
2019-05-29T00:13:32.417Z,12.50
2019-05-29T00:16:01.552Z,12.40
2019-05-29T00:18:30.131Z,12.30
2019-05-29T00:20:58.722Z,12.30
2019-05-29T00:23:27.395Z,12.30
2019-05-29T00:25:56.003Z,12.30
2019-05-29T00:28:24.760Z,12.30
2019-05-29T00:30:53.355Z,12.20
2019-05-29T00:33:21.972Z,12.20
2019-05-29T00:35:50.643Z,12.10
2019-05-29T00:38:19.324Z,12.10
2019-05-29T00:40:47.918Z,12.20
2019-05-29T00:43:17.557Z,12.10
2019-05-29T00:45:46.590Z,12.10
2019-05-29T00:48:16.041Z,12.10
2019-05-29T00:50:44.995Z,12.10
2019-05-29T00:53:14.298Z,12.00
2019-05-29T00:55:43.248Z,12.00
2019-05-29T00:58:12.771Z,12.00
2019-05-29T01:00:41.795Z,12.00
2019-05-29T01:03:11.548Z,12.00
2019-05-29T01:05:40.381Z,11.90
2019-05-29T01:08:10.243Z,12.00
2019-05-29T01:10:39.324Z,11.90
2019-05-29T01:13:07.920Z,11.90
2019-05-29T01:15:36.711Z,11.90
2019-05-29T01:18:05.701Z,11.80
2019-05-29T01:20:34.269Z,11.70
2019-05-29T01:23:02.895Z,11.70
2019-05-29T01:25:31.627Z,11.70
2019-05-29T01:28:00.215Z,11.70
2019-05-29T01:30:28.799Z,11.70
2019-05-29T01:32:57.465Z,11.70
2019-05-29T01:35:26.123Z,11.60
2019-05-29T01:37:54.722Z,11.60
2019-05-29T01:40:27.216Z,11.60
2019-05-29T01:42:53.576Z,11.60
2019-05-29T01:45:23.484Z,11.60
2019-05-29T01:47:52.322Z,11.60
2019-05-29T01:50:21.768Z,11.60
2019-05-29T01:52:50.487Z,11.60
2019-05-29T01:55:19.785Z,11.60
2019-05-29T01:57:48.626Z,11.60
2019-05-29T02:00:17.888Z,11.60
2019-05-29T02:02:46.762Z,11.50
2019-05-29T02:05:15.744Z,11.40
2019-05-29T02:07:44.466Z,11.40
2019-05-29T02:10:13.666Z,11.40
2019-05-29T02:12:42.237Z,11.40
2019-05-29T02:15:24.853Z,11.40
2019-05-29T02:17:41.831Z,11.40
2019-05-29T02:20:11.270Z,11.40
2019-05-29T02:22:39.910Z,11.40
2019-05-29T02:25:09.906Z,11.40
2019-05-29T02:27:38.505Z,11.40
2019-05-29T02:30:08.331Z,11.40
2019-05-29T02:32:37.184Z,11.40
2019-05-29T02:35:06.999Z,11.30
2019-05-29T02:37:35.660Z,11.40
2019-05-29T02:40:07.260Z,11.40
2019-05-29T02:42:35.994Z,11.30
2019-05-29T02:45:07.233Z,11.40
2019-05-29T02:47:35.836Z,11.30
2019-05-29T02:50:07.751Z,11.40
2019-05-29T02:52:36.477Z,11.30
2019-05-29T02:55:07.580Z,11.30
2019-05-29T02:57:36.183Z,11.40
2019-05-29T03:00:08.158Z,11.40
2019-05-29T03:02:37.134Z,11.30
2019-05-29T03:05:06.934Z,11.30
2019-05-29T03:07:36.048Z,11.30
2019-05-29T03:10:06.984Z,11.30
2019-05-29T03:12:36.420Z,11.30
2019-05-29T03:15:06.273Z,11.30
2019-05-29T03:17:34.916Z,11.30
2019-05-29T03:20:04.676Z,11.30
2019-05-29T03:22:35.392Z,11.30
2019-05-29T03:25:04.947Z,11.40
2019-05-29T03:27:33.961Z,11.40
2019-05-29T03:30:02.954Z,11.40
2019-05-29T03:32:39.223Z,11.40
2019-05-29T03:35:01.986Z,11.30
2019-05-29T03:37:32.334Z,11.30
2019-05-29T03:40:01.213Z,11.30
2019-05-29T03:42:30.370Z,11.30
2019-05-29T03:44:59.013Z,11.30
2019-05-29T03:47:28.754Z,11.30
2019-05-29T03:49:57.651Z,11.40
2019-05-29T03:52:28.279Z,11.30
2019-05-29T03:54:56.600Z,11.30
2019-05-29T03:57:25.367Z,11.30
2019-05-29T03:59:53.970Z,11.30
2019-05-29T04:02:22.748Z,11.30
2019-05-29T04:04:51.475Z,11.30
2019-05-29T04:07:20.054Z,11.30
2019-05-29T04:09:48.763Z,11.30
2019-05-29T04:12:19.079Z,11.30
2019-05-29T04:14:48.954Z,11.40
2019-05-29T04:17:20.510Z,11.30
2019-05-29T04:19:49.134Z,11.30
2019-05-29T04:22:20.982Z,11.30
2019-05-29T04:24:52.187Z,11.30
2019-05-29T04:27:23.866Z,11.30
2019-05-29T04:29:53.812Z,11.30
2019-05-29T04:32:22.403Z,11.40
2019-05-29T04:34:51.158Z,11.40
2019-05-29T04:37:19.798Z,11.50
2019-05-29T04:39:48.544Z,11.50
2019-05-29T04:42:17.238Z,11.70
2019-05-29T04:44:45.935Z,11.80
2019-05-29T04:47:14.461Z,12.00
2019-05-29T04:49:43.080Z,12.20
2019-05-29T04:52:12.086Z,12.30
2019-05-29T04:54:40.702Z,12.40
2019-05-29T04:57:10.248Z,12.40
2019-05-29T04:59:39.253Z,12.50
2019-05-29T05:02:08.222Z,12.60
2019-05-29T05:04:37.332Z,12.70
2019-05-29T05:07:06.330Z,12.60
2019-05-29T05:09:35.414Z,12.70
2019-05-29T05:12:04.209Z,12.70
2019-05-29T05:14:33.590Z,12.60
2019-05-29T05:17:02.579Z,12.70
2019-05-29T05:19:31.821Z,12.60
2019-05-29T05:22:00.742Z,12.70
2019-05-29T05:24:30.172Z,12.70
2019-05-29T05:26:59.041Z,12.60
2019-05-29T05:29:29.931Z,12.50
2019-05-29T05:31:58.427Z,12.40
2019-05-29T05:34:27.040Z,12.40
2019-05-29T05:36:55.753Z,12.40
2019-05-29T05:39:24.512Z,12.50
2019-05-29T05:41:54.499Z,12.50
2019-05-29T05:44:23.134Z,12.60
2019-05-29T05:46:51.782Z,12.70
2019-05-29T05:49:20.445Z,12.70
2019-05-29T05:51:49.202Z,12.80
2019-05-29T05:54:17.624Z,12.90
2019-05-29T05:56:46.445Z,13.10
2019-05-29T05:59:16.837Z,13.30
2019-05-29T06:01:45.482Z,13.50
2019-05-29T06:04:14.167Z,13.60
2019-05-29T06:06:43.464Z,13.70
2019-05-29T06:09:12.322Z,13.70
2019-05-29T06:11:41.008Z,13.70
2019-05-29T06:14:09.912Z,13.70
2019-05-29T06:16:38.705Z,13.70
2019-05-29T06:19:07.553Z,13.70
2019-05-29T06:21:36.730Z,13.60
2019-05-29T06:24:06.155Z,13.60
2019-05-29T06:26:34.914Z,13.60
2019-05-29T06:29:03.892Z,13.80
2019-05-29T06:31:33.315Z,13.90
2019-05-29T06:34:02.211Z,14.20
2019-05-29T06:36:30.952Z,14.40
2019-05-29T06:38:59.903Z,14.50
2019-05-29T06:41:28.847Z,14.40
2019-05-29T06:43:57.754Z,14.40
2019-05-29T06:46:26.455Z,14.30
2019-05-29T06:49:00.239Z,14.30
2019-05-29T06:51:25.466Z,14.20
2019-05-29T06:53:56.776Z,14.30
2019-05-29T06:56:25.696Z,14.40
2019-05-29T06:58:54.299Z,14.50
2019-05-29T07:01:23.031Z,14.70
2019-05-29T07:04:10.061Z,14.80
2019-05-29T07:06:21.955Z,15.00
2019-05-29T07:08:50.558Z,15.00
2019-05-29T07:11:19.363Z,14.90
2019-05-29T07:13:50.288Z,14.90
2019-05-29T07:16:20.157Z,15.20
2019-05-29T07:19:23.426Z,15.40
2019-05-29T07:21:19.192Z,15.80
2019-05-29T07:23:48.784Z,16.00
2019-05-29T07:26:17.579Z,16.10
2019-05-29T07:29:05.658Z,16.40
2019-05-29T07:31:16.630Z,16.70
2019-05-29T07:33:45.284Z,16.90
2019-05-29T07:36:14.045Z,16.80
2019-05-29T07:38:48.821Z,16.90
2019-05-29T07:41:13.127Z,17.00
2019-05-29T07:43:41.841Z,17.00
2019-05-29T07:46:10.546Z,17.00
2019-05-29T07:48:40.422Z,17.20
2019-05-29T07:51:09.354Z,17.20
2019-05-29T07:53:38.764Z,17.20
2019-05-29T07:56:21.583Z,17.20
2019-05-29T07:58:38.671Z,17.00
2019-05-29T08:01:13.279Z,17.00
2019-05-29T08:03:39.253Z,17.30
2019-05-29T08:06:08.414Z,17.30
2019-05-29T08:08:36.947Z,17.50
2019-05-29T08:11:05.846Z,17.70
2019-05-29T08:13:34.520Z,17.80
2019-05-29T08:16:03.510Z,18.10
2019-05-29T08:18:32.271Z,18.40
2019-05-29T08:21:00.954Z,18.50
2019-05-29T08:23:29.564Z,18.80
2019-05-29T08:25:58.401Z,18.90
2019-05-29T08:28:27.035Z,18.90
2019-05-29T08:30:56.518Z,19.20
2019-05-29T08:33:25.732Z,19.30
2019-05-29T08:35:59.856Z,19.30
2019-05-29T08:38:24.607Z,19.40
2019-05-29T08:40:53.322Z,19.50
2019-05-29T08:43:23.092Z,19.70
2019-05-29T08:45:52.694Z,20.20
2019-05-29T08:48:21.374Z,20.40
2019-05-29T08:50:50.037Z,20.60
2019-05-29T08:53:18.906Z,20.90
2019-05-29T08:55:48.318Z,20.50
2019-05-29T08:58:17.438Z,20.10
2019-05-29T09:00:49.885Z,19.90
2019-05-29T09:03:16.493Z,19.70
2019-05-29T09:05:46.570Z,19.60
2019-05-29T09:08:15.574Z,20.00
2019-05-29T09:10:45.219Z,20.30
2019-05-29T09:13:14.236Z,20.80
2019-05-29T09:15:42.991Z,21.20
2019-05-29T09:18:12.913Z,21.40
2019-05-29T09:21:00.935Z,21.40
2019-05-29T09:23:12.757Z,21.40
2019-05-29T09:25:41.478Z,21.60
2019-05-29T09:28:16.587Z,21.70
2019-05-29T09:30:46.126Z,21.90
2019-05-29T09:33:16.301Z,21.90
2019-05-29T09:35:45.120Z,22.60
2019-05-29T09:38:14.069Z,23.70
2019-05-29T09:40:44.144Z,24.50
2019-05-29T09:43:12.934Z,24.50
2019-05-29T09:45:41.715Z,24.60
2019-05-29T09:48:10.338Z,23.90
2019-05-29T09:50:50.068Z,23.50
2019-05-29T09:53:09.230Z,23.00
2019-05-29T09:55:38.007Z,22.70
2019-05-29T09:58:06.670Z,22.50
2019-05-29T10:00:35.406Z,22.40
2019-05-29T10:03:04.238Z,22.30
2019-05-29T10:05:32.925Z,22.80
2019-05-29T10:08:02.376Z,23.60
2019-05-29T10:10:32.368Z,24.40
2019-05-29T10:13:02.729Z,25.70
2019-05-29T10:15:31.229Z,26.00
2019-05-29T10:18:00.648Z,26.20
2019-05-29T10:20:29.835Z,26.80
2019-05-29T10:22:59.022Z,26.80
2019-05-29T10:25:27.844Z,27.70
2019-05-29T10:27:56.840Z,28.20
2019-05-29T10:30:28.487Z,28.80
2019-05-29T10:32:57.224Z,28.90
2019-05-29T10:35:26.271Z,29.10
2019-05-29T10:37:54.951Z,29.10
2019-05-29T10:40:23.589Z,29.30
2019-05-29T10:42:53.526Z,28.80
2019-05-29T10:45:23.317Z,27.80
2019-05-29T10:47:53.959Z,27.10
2019-05-29T10:50:22.943Z,27.40
2019-05-29T10:52:52.187Z,28.20
2019-05-29T10:55:23.286Z,28.50
2019-05-29T10:57:55.105Z,29.10
2019-05-29T11:00:23.345Z,29.80
2019-05-29T11:02:54.572Z,29.60
2019-05-29T11:05:22.520Z,30.30
2019-05-29T11:07:51.891Z,31.50
2019-05-29T11:10:21.360Z,31.90
2019-05-29T11:12:50.606Z,30.80
2019-05-29T11:15:22.073Z,30.20
2019-05-29T11:17:51.438Z,29.50
2019-05-29T11:20:21.286Z,29.10
2019-05-29T11:22:50.010Z,29.90
2019-05-29T11:25:23.636Z,30.40
2019-05-29T11:27:50.371Z,30.10
2019-05-29T11:30:20.285Z,29.90
2019-05-29T11:32:50.856Z,30.10
2019-05-29T11:35:19.314Z,30.90
2019-05-29T11:37:47.910Z,32.00
2019-05-29T11:40:17.090Z,32.20
2019-05-29T11:42:45.654Z,32.00
2019-05-29T11:45:16.337Z,32.30
2019-05-29T11:47:45.090Z,32.60
2019-05-29T11:50:19.714Z,32.90
2019-05-29T11:52:46.135Z,32.90
2019-05-29T11:55:15.712Z,32.70
2019-05-29T11:57:44.433Z,32.60
2019-05-29T12:00:20.264Z,33.40
2019-05-29T12:02:45.824Z,33.50
2019-05-29T12:05:15.931Z,32.70
2019-05-29T12:07:44.787Z,32.10
2019-05-29T12:10:14.287Z,31.80
2019-05-29T12:12:43.162Z,31.20
2019-05-29T12:15:16.006Z,31.40
2019-05-29T12:17:42.892Z,32.10
2019-05-29T12:20:26.951Z,32.60
2019-05-29T12:23:07.311Z,32.80
2019-05-29T12:25:13.618Z,32.80
2019-05-29T12:27:42.291Z,33.30
2019-05-29T12:30:12.925Z,33.40
2019-05-29T12:32:41.649Z,33.40
2019-05-29T12:35:10.949Z,33.40
2019-05-29T12:37:39.643Z,33.30
2019-05-29T12:40:09.596Z,33.20
2019-05-29T12:42:38.346Z,33.30
2019-05-29T12:45:09.413Z,33.20
2019-05-29T12:47:38.030Z,32.60
2019-05-29T12:50:09.445Z,30.70
2019-05-29T12:52:38.531Z,29.80
2019-05-29T12:55:08.687Z,29.50
2019-05-29T12:57:37.404Z,28.70
2019-05-29T13:00:09.140Z,28.50
2019-05-29T13:02:37.880Z,28.40
2019-05-29T13:05:18.053Z,28.50
2019-05-29T13:07:38.994Z,28.60
2019-05-29T13:10:08.993Z,29.20
2019-05-29T13:12:38.026Z,30.00
2019-05-29T13:15:10.648Z,30.20
2019-05-29T13:17:39.391Z,29.70
2019-05-29T13:20:20.947Z,29.20
2019-05-29T13:22:43.229Z,28.70
2019-05-29T13:25:13.321Z,28.20
2019-05-29T13:27:42.200Z,27.40
2019-05-29T13:30:13.191Z,26.60
2019-05-29T13:32:42.130Z,26.20
2019-05-29T13:35:12.175Z,25.80
2019-05-29T13:37:42.490Z,25.50
2019-05-29T13:40:11.957Z,25.30
2019-05-29T13:42:40.869Z,25.00
2019-05-29T13:45:17.829Z,24.80
2019-05-29T13:47:42.463Z,24.50
2019-05-29T13:50:13.583Z,23.70
2019-05-29T13:52:42.438Z,23.40
2019-05-29T13:55:12.922Z,23.00
2019-05-29T13:57:41.594Z,22.60
2019-05-29T14:00:34.318Z,22.30
2019-05-29T14:02:46.526Z,22.00
2019-05-29T14:05:16.389Z,21.70
2019-05-29T14:07:45.535Z,21.40
2019-05-29T14:10:16.175Z,21.00
2019-05-29T14:12:44.840Z,20.90
2019-05-29T14:15:14.448Z,20.80
2019-05-29T14:17:43.027Z,20.80
2019-05-29T14:20:13.246Z,21.00
2019-05-29T14:22:41.955Z,20.90
2019-05-29T14:25:12.971Z,20.80
2019-05-29T14:27:41.836Z,20.60
2019-05-29T14:30:14.111Z,20.30
2019-05-29T14:32:43.019Z,20.40
2019-05-29T14:35:13.617Z,20.40
2019-05-29T14:37:42.456Z,20.50
2019-05-29T14:40:12.131Z,20.60
2019-05-29T14:42:40.997Z,20.40
2019-05-29T14:45:10.715Z,20.40
2019-05-29T14:47:40.890Z,20.30
2019-05-29T14:50:11.208Z,20.30
2019-05-29T14:52:41.004Z,20.30
2019-05-29T14:55:16.188Z,20.20
2019-05-29T14:57:41.229Z,20.10
2019-05-29T15:00:24.349Z,19.90
2019-05-29T15:02:42.964Z,19.90
2019-05-29T15:05:12.651Z,20.00
2019-05-29T15:07:42.704Z,20.00
2019-05-29T15:10:24.013Z,20.00
2019-05-29T15:12:42.593Z,20.40
2019-05-29T15:15:14.265Z,20.50
2019-05-29T15:17:42.064Z,20.60
2019-05-29T15:20:14.238Z,20.70
2019-05-29T15:22:42.861Z,21.00
2019-05-29T15:25:20.999Z,21.30
2019-05-29T15:27:43.924Z,22.60
2019-05-29T15:30:18.121Z,24.10
2019-05-29T15:32:43.442Z,25.50
2019-05-29T15:35:17.621Z,26.70
2019-05-29T15:37:43.191Z,27.80
2019-05-29T15:40:14.892Z,28.90
2019-05-29T15:42:43.038Z,29.40
2019-05-29T15:45:14.117Z,29.30
2019-05-29T15:47:43.117Z,29.10
2019-05-29T15:50:13.688Z,29.20
2019-05-29T15:52:42.934Z,29.30
2019-05-29T15:55:27.658Z,29.10
2019-05-29T15:57:42.893Z,29.10
2019-05-29T16:00:13.863Z,28.40
2019-05-29T16:02:42.909Z,27.80
2019-05-29T16:05:19.837Z,27.50
2019-05-29T16:07:48.916Z,27.10
2019-05-29T16:10:22.417Z,27.10
2019-05-29T16:12:50.754Z,26.60
2019-05-29T16:15:19.912Z,26.70
2019-05-29T16:17:48.706Z,26.80
2019-05-29T16:20:18.559Z,27.10
2019-05-29T16:22:47.793Z,27.00
2019-05-29T16:25:17.546Z,26.50
2019-05-29T16:27:46.205Z,26.30
2019-05-29T16:30:15.895Z,26.70
2019-05-29T16:32:44.536Z,26.50
2019-05-29T16:35:13.562Z,26.30
2019-05-29T16:37:42.390Z,26.10
2019-05-29T16:40:14.200Z,26.20
2019-05-29T16:42:42.462Z,25.90
2019-05-29T16:45:12.480Z,25.60
2019-05-29T16:47:41.078Z,25.50
2019-05-29T16:50:13.001Z,25.10
2019-05-29T16:52:44.280Z,25.10
2019-05-29T16:55:13.346Z,25.00
2019-05-29T16:57:42.168Z,24.80
2019-05-29T17:00:13.592Z,24.30
2019-05-29T17:02:42.555Z,24.10
2019-05-29T17:05:11.983Z,23.70
2019-05-29T17:07:40.955Z,23.90
2019-05-29T17:10:11.614Z,23.80
2019-05-29T17:12:40.443Z,23.30
2019-05-29T17:15:11.469Z,23.20
2019-05-29T17:17:40.170Z,22.70
2019-05-29T17:20:10.119Z,22.60
2019-05-29T17:22:38.830Z,22.40
2019-05-29T17:25:09.360Z,21.90
2019-05-29T17:27:39.968Z,21.70
2019-05-29T17:30:09.829Z,21.80
2019-05-29T17:32:38.504Z,21.90
2019-05-29T17:35:10.654Z,21.90
2019-05-29T17:37:39.357Z,21.90
2019-05-29T17:40:08.904Z,21.70
2019-05-29T17:42:37.883Z,21.70
2019-05-29T17:45:10.509Z,21.30
2019-05-29T17:47:40.038Z,21.10
2019-05-29T17:50:09.715Z,20.80
2019-05-29T17:52:38.577Z,20.40
2019-05-29T17:55:08.218Z,19.70
2019-05-29T17:57:36.950Z,19.10
2019-05-29T18:00:11.659Z,18.80
2019-05-29T18:02:51.584Z,18.60
2019-05-29T18:05:11.721Z,18.00
2019-05-29T18:07:43.421Z,17.50
2019-05-29T18:10:12.342Z,16.90
2019-05-29T18:12:41.025Z,16.60
2019-05-29T18:15:10.733Z,16.20
2019-05-29T18:17:39.675Z,16.10
2019-05-29T18:20:14.251Z,16.10
2019-05-29T18:22:40.611Z,15.90
2019-05-29T18:25:10.222Z,15.90
2019-05-29T18:27:38.975Z,15.80
2019-05-29T18:30:09.216Z,15.80
2019-05-29T18:32:38.209Z,15.60
2019-05-29T18:35:08.035Z,15.50
2019-05-29T18:37:38.250Z,15.30
2019-05-29T18:40:12.446Z,15.10
2019-05-29T18:42:39.100Z,14.90
2019-05-29T18:45:20.528Z,14.70
2019-05-29T18:47:40.428Z,14.50
2019-05-29T18:50:10.280Z,14.40
2019-05-29T18:52:38.938Z,14.10
2019-05-29T18:55:09.151Z,14.10
2019-05-29T18:57:38.010Z,14.00
2019-05-29T19:00:11.460Z,13.80
2019-05-29T19:02:41.145Z,13.70
2019-05-29T19:05:10.665Z,13.60
2019-05-29T19:07:39.512Z,13.60
2019-05-29T19:10:08.978Z,13.50
2019-05-29T19:12:37.744Z,13.50
2019-05-29T19:15:07.912Z,13.40
2019-05-29T19:17:36.847Z,13.30
2019-05-29T19:20:07.312Z,13.20
2019-05-29T19:22:36.024Z,13.10
2019-05-29T19:25:08.379Z,13.10
2019-05-29T19:27:41.558Z,13.00
2019-05-29T19:30:10.835Z,12.90
2019-05-29T19:32:42.448Z,12.90
2019-05-29T19:35:11.754Z,12.80
2019-05-29T19:37:43.474Z,12.70
2019-05-29T19:40:13.806Z,12.70
2019-05-29T19:42:44.336Z,12.60
2019-05-29T19:45:13.274Z,12.60
2019-05-29T19:47:41.946Z,12.60
2019-05-29T19:50:11.768Z,12.50
2019-05-29T19:52:40.586Z,12.50
2019-05-29T19:55:09.618Z,12.40
2019-05-29T19:57:54.153Z,12.40
2019-05-29T20:00:12.338Z,12.30
2019-05-29T20:02:41.291Z,12.30
2019-05-29T20:05:10.238Z,12.30
2019-05-29T20:07:39.002Z,12.20
2019-05-29T20:10:09.345Z,12.10
2019-05-29T20:12:38.247Z,12.20
2019-05-29T20:15:07.896Z,12.10
2019-05-29T20:17:36.491Z,12.10
2019-05-29T20:20:08.811Z,12.00
2019-05-29T20:22:38.945Z,12.00
2019-05-29T20:25:08.552Z,12.00
2019-05-29T20:27:38.361Z,11.90
2019-05-29T20:30:10.339Z,11.90
2019-05-29T20:32:39.101Z,11.70
2019-05-29T20:35:07.946Z,11.70
2019-05-29T20:37:36.533Z,11.70
2019-05-29T20:40:08.355Z,11.60
2019-05-29T20:42:38.334Z,11.60
2019-05-29T20:45:07.797Z,11.60
2019-05-29T20:47:37.833Z,11.50
2019-05-29T20:50:28.128Z,11.50
2019-05-29T20:52:56.724Z,11.50
2019-05-29T20:55:25.286Z,11.40
2019-05-29T20:57:53.898Z,11.40
2019-05-29T21:00:23.208Z,11.40
2019-05-29T21:02:51.871Z,11.40
2019-05-29T21:05:20.695Z,11.30
2019-05-29T21:07:49.294Z,11.30
2019-05-29T21:10:24.941Z,11.30
2019-05-29T21:12:53.542Z,11.30
2019-05-29T21:15:22.597Z,11.30
2019-05-29T21:17:51.292Z,11.30
2019-05-29T21:20:20.177Z,11.30
2019-05-29T21:22:48.846Z,11.20
2019-05-29T21:25:19.339Z,11.20
2019-05-29T21:27:49.596Z,11.20
2019-05-29T21:30:23.710Z,11.20
2019-05-29T21:32:52.450Z,11.10
2019-05-29T21:35:21.218Z,11.10
2019-05-29T21:37:49.798Z,11.10
2019-05-29T21:40:19.028Z,11.00
2019-05-29T21:42:47.714Z,11.00
2019-05-29T21:45:16.593Z,11.00
2019-05-29T21:47:45.255Z,11.00
2019-05-29T21:50:14.524Z,10.90
2019-05-29T21:52:43.591Z,10.90
2019-05-29T21:55:12.852Z,10.80
2019-05-29T21:57:43.936Z,10.70
2019-05-29T22:00:15.351Z,10.70
2019-05-29T22:02:44.514Z,10.70
2019-05-29T22:05:14.645Z,10.60
2019-05-29T22:07:43.226Z,10.50
2019-05-29T22:10:13.058Z,10.50
2019-05-29T22:12:41.731Z,10.50
2019-05-29T22:15:10.499Z,10.40
2019-05-29T22:17:39.193Z,10.40
2019-05-29T22:20:09.176Z,10.30
2019-05-29T22:22:38.354Z,10.20
2019-05-29T22:25:08.562Z,10.30
2019-05-29T22:27:38.091Z,10.30
2019-05-29T22:30:08.757Z,10.20
2019-05-29T22:32:37.497Z,10.20
2019-05-29T22:35:10.165Z,10.10
2019-05-29T22:37:38.869Z,10.10
2019-05-29T22:40:09.113Z,10.00
2019-05-29T22:42:37.796Z,10.00
2019-05-29T22:45:07.112Z,10.00
2019-05-29T22:47:35.711Z,9.90
2019-05-29T22:50:06.416Z,9.90
2019-05-29T22:52:35.120Z,9.80
2019-05-29T22:55:05.718Z,9.80
2019-05-29T22:57:34.304Z,9.70
2019-05-29T23:00:03.630Z,9.70
2019-05-29T23:02:32.371Z,9.60
2019-05-29T23:05:03.526Z,9.60
2019-05-29T23:07:31.241Z,9.50
2019-05-29T23:10:00.625Z,9.50
2019-05-29T23:12:29.566Z,9.50
2019-05-29T23:14:58.513Z,9.40
2019-05-29T23:17:27.251Z,9.50
2019-05-29T23:19:56.659Z,9.50
2019-05-29T23:22:25.552Z,9.40
2019-05-29T23:24:54.850Z,9.40
2019-05-29T23:27:23.804Z,9.40
2019-05-29T23:29:52.655Z,9.40
2019-05-29T23:32:21.366Z,9.50
2019-05-29T23:34:49.945Z,9.50
2019-05-29T23:37:18.516Z,9.50
2019-05-29T23:39:47.123Z,9.50
2019-05-29T23:42:15.710Z,9.40
2019-05-29T23:44:44.293Z,9.30
2019-05-29T23:47:12.894Z,9.30
2019-05-29T23:49:41.663Z,9.30
2019-05-29T23:52:10.262Z,9.20
2019-05-29T23:54:38.930Z,9.20
2019-05-29T23:57:07.597Z,9.20
2019-05-29T23:59:36.577Z,9.20
